Confederate, Kentucky
Current Conditions -  °F | °C
As of 12:55 AM on Thursday 23 Oct 2014 (Local Time) from K5M9 Reporting Station
Clear Clear  
Wind Chill: 42°   Ceiling: Unl
Heat Index: 42°   Visibility: 10mi
Dew Point: 39°   Wind: 3mph
Humidity: 90%   Direction: 40°NE
Pressure: 30.23"   Gusts: NA
Location:  37.0504°N, 88.0159°W
Report Text: K5M9 230555Z AUTO 04003KT 10SM CLR 06/04 A3023 RMK AO2 T00570041 10105 20055 401610040
Loading
Personal Weather Stations






























Interactive Weather Map
Tropical Storm Tracking
New forecast layout! Learn more

10-Day Weather Forecast

Advertisements
Track Severe Weather on mobile